Elliot Lake, Canada
Current Conditions -  °F | °C
As of 12:22 AM on Saturday 29 Nov 2014 (Local Time) from CYZE Reporting Station
Light Snow Light Snow  
Wind Chill: -8°   Ceiling: 2200
Heat Index: -4°   Visibility: 9mi
Dew Point: -6°   Wind: 7mph
Humidity: 86%   Direction: 110°ESE
Pressure: 30.03"   Gusts: NA
Location:  46.38°N, 82.65°W
Report Text: CYZE 290522Z AUTO 11006KT 9SM -SN BKN022 BKN039 OVC080 M04/M06 A3003 RMK SLP183
Loading
Personal Weather Stations






























Interactive Weather Map New forecast layout! Learn more

10-Day Weather Forecast

Advertisements
Track Severe Weather on mobile